sensor_id;sensor_type;location;lat;lon;timestamp;temperature;humidity
14786;DHT22;7484;49.906;9.058;2022-10-13T00:00:32;10.70;99.90
14786;DHT22;7484;49.906;9.058;2022-10-13T00:02:59;10.70;99.90
14786;DHT22;7484;49.906;9.058;2022-10-13T00:05:26;10.70;99.90
14786;DHT22;7484;49.906;9.058;2022-10-13T00:07:53;10.70;99.90
14786;DHT22;7484;49.906;9.058;2022-10-13T00:10:20;10.80;99.90
14786;DHT22;7484;49.906;9.058;2022-10-13T00:12:47;10.70;99.90
14786;DHT22;7484;49.906;9.058;2022-10-13T00:15:13;10.90;99.90
14786;DHT22;7484;49.906;9.058;2022-10-13T00:17:42;10.90;99.90
14786;DHT22;7484;49.906;9.058;2022-10-13T00:20:10;10.80;99.90
14786;DHT22;7484;49.906;9.058;2022-10-13T00:22:37;10.80;99.90
14786;DHT22;7484;49.906;9.058;2022-10-13T00:25:04;10.80;99.90
14786;DHT22;7484;49.906;9.058;2022-10-13T00:27:31;10.80;99.90
14786;DHT22;7484;49.906;9.058;2022-10-13T00:29:58;11.30;99.90
14786;DHT22;7484;49.906;9.058;2022-10-13T00:32:24;10.80;99.90
14786;DHT22;7484;49.906;9.058;2022-10-13T00:34:52;10.80;99.90
14786;DHT22;7484;49.906;9.058;2022-10-13T00:37:20;10.70;99.90
14786;DHT22;7484;49.906;9.058;2022-10-13T00:39:47;10.80;99.90
14786;DHT22;7484;49.906;9.058;2022-10-13T00:42:14;10.70;99.90
14786;DHT22;7484;49.906;9.058;2022-10-13T00:45:03;10.70;99.90
14786;DHT22;7484;49.906;9.058;2022-10-13T00:47:35;10.70;99.90
14786;DHT22;7484;49.906;9.058;2022-10-13T00:50:05;10.70;99.90
14786;DHT22;7484;49.906;9.058;2022-10-13T00:52:32;10.60;99.90
14786;DHT22;7484;49.906;9.058;2022-10-13T00:55:00;10.50;99.90
14786;DHT22;7484;49.906;9.058;2022-10-13T00:57:29;10.40;99.90
14786;DHT22;7484;49.906;9.058;2022-10-13T00:59:57;10.50;99.90
14786;DHT22;7484;49.906;9.058;2022-10-13T01:02:28;10.60;99.90
14786;DHT22;7484;49.906;9.058;2022-10-13T01:04:58;10.60;99.90
14786;DHT22;7484;49.906;9.058;2022-10-13T01:07:26;10.70;99.90
14786;DHT22;7484;49.906;9.058;2022-10-13T01:09:53;10.70;99.90
14786;DHT22;7484;49.906;9.058;2022-10-13T01:12:29;10.70;99.90
14786;DHT22;7484;49.906;9.058;2022-10-13T01:15:04;10.80;99.90
14786;DHT22;7484;49.906;9.058;2022-10-13T01:17:37;10.60;99.90
14786;DHT22;7484;49.906;9.058;2022-10-13T01:20:31;10.60;99.90
14786;DHT22;7484;49.906;9.058;2022-10-13T01:23:17;10.70;99.90
14786;DHT22;7484;49.906;9.058;2022-10-13T01:26:01;10.80;99.90
14786;DHT22;7484;49.906;9.058;2022-10-13T01:28:38;10.90;99.90
14786;DHT22;7484;49.906;9.058;2022-10-13T01:31:14;11.00;99.90
14786;DHT22;7484;49.906;9.058;2022-10-13T01:33:49;10.90;99.90
14786;DHT22;7484;49.906;9.058;2022-10-13T01:36:24;10.90;99.90
14786;DHT22;7484;49.906;9.058;2022-10-13T01:39:00;10.80;99.90
14786;DHT22;7484;49.906;9.058;2022-10-13T01:41:32;10.90;99.90
14786;DHT22;7484;49.906;9.058;2022-10-13T01:44:13;10.90;99.90
14786;DHT22;7484;49.906;9.058;2022-10-13T01:46:50;10.90;99.90
14786;DHT22;7484;49.906;9.058;2022-10-13T01:49:20;11.00;99.90
14786;DHT22;7484;49.906;9.058;2022-10-13T01:51:50;11.20;99.90
14786;DHT22;7484;49.906;9.058;2022-10-13T01:54:17;11.20;99.90
14786;DHT22;7484;49.906;9.058;2022-10-13T01:56:50;11.20;99.90
14786;DHT22;7484;49.906;9.058;2022-10-13T01:59:17;11.10;99.90
14786;DHT22;7484;49.906;9.058;2022-10-13T02:01:53;11.00;99.90
14786;DHT22;7484;49.906;9.058;2022-10-13T02:04:30;11.00;99.90
14786;DHT22;7484;49.906;9.058;2022-10-13T02:07:05;10.90;99.90
14786;DHT22;7484;49.906;9.058;2022-10-13T02:09:42;10.70;99.90
14786;DHT22;7484;49.906;9.058;2022-10-13T02:12:17;10.80;99.90
14786;DHT22;7484;49.906;9.058;2022-10-13T02:14:46;10.60;99.90
14786;DHT22;7484;49.906;9.058;2022-10-13T02:17:15;10.60;99.90
14786;DHT22;7484;49.906;9.058;2022-10-13T02:19:44;10.70;99.90
14786;DHT22;7484;49.906;9.058;2022-10-13T02:22:12;10.70;99.90
14786;DHT22;7484;49.906;9.058;2022-10-13T02:24:40;10.80;99.90
14786;DHT22;7484;49.906;9.058;2022-10-13T02:27:07;10.90;99.90
14786;DHT22;7484;49.906;9.058;2022-10-13T02:29:34;11.00;99.90
14786;DHT22;7484;49.906;9.058;2022-10-13T02:32:14;11.10;99.90
14786;DHT22;7484;49.906;9.058;2022-10-13T02:34:41;11.10;99.90
14786;DHT22;7484;49.906;9.058;2022-10-13T02:37:08;10.90;99.90
14786;DHT22;7484;49.906;9.058;2022-10-13T02:39:35;10.60;99.90
14786;DHT22;7484;49.906;9.058;2022-10-13T02:42:02;10.50;99.90
14786;DHT22;7484;49.906;9.058;2022-10-13T02:44:28;10.40;99.90
14786;DHT22;7484;49.906;9.058;2022-10-13T02:46:55;10.50;99.90
14786;DHT22;7484;49.906;9.058;2022-10-13T02:49:23;10.60;99.90
14786;DHT22;7484;49.906;9.058;2022-10-13T02:51:51;10.70;99.90
14786;DHT22;7484;49.906;9.058;2022-10-13T02:54:17;10.60;99.90
14786;DHT22;7484;49.906;9.058;2022-10-13T02:56:44;10.50;99.90
14786;DHT22;7484;49.906;9.058;2022-10-13T02:59:11;10.40;99.90
14786;DHT22;7484;49.906;9.058;2022-10-13T03:01:38;10.40;99.90
14786;DHT22;7484;49.906;9.058;2022-10-13T03:04:06;10.40;99.90
14786;DHT22;7484;49.906;9.058;2022-10-13T03:06:34;10.20;99.90
14786;DHT22;7484;49.906;9.058;2022-10-13T03:09:00;10.20;99.90
14786;DHT22;7484;49.906;9.058;2022-10-13T03:11:27;10.30;99.90
14786;DHT22;7484;49.906;9.058;2022-10-13T03:13:55;10.20;99.90
14786;DHT22;7484;49.906;9.058;2022-10-13T03:16:21;10.10;99.90
14786;DHT22;7484;49.906;9.058;2022-10-13T03:18:48;10.10;99.90
14786;DHT22;7484;49.906;9.058;2022-10-13T03:21:15;10.00;99.90
14786;DHT22;7484;49.906;9.058;2022-10-13T03:23:43;10.00;99.90
14786;DHT22;7484;49.906;9.058;2022-10-13T03:26:10;10.00;99.90
14786;DHT22;7484;49.906;9.058;2022-10-13T03:28:37;10.00;99.90
14786;DHT22;7484;49.906;9.058;2022-10-13T03:31:05;9.90;99.90
14786;DHT22;7484;49.906;9.058;2022-10-13T03:33:32;10.00;99.90
14786;DHT22;7484;49.906;9.058;2022-10-13T03:36:00;10.10;99.90
14786;DHT22;7484;49.906;9.058;2022-10-13T03:38:28;10.20;99.90
14786;DHT22;7484;49.906;9.058;2022-10-13T03:40:57;10.10;99.90
14786;DHT22;7484;49.906;9.058;2022-10-13T03:43:24;10.10;99.90
14786;DHT22;7484;49.906;9.058;2022-10-13T03:45:54;10.10;99.90
14786;DHT22;7484;49.906;9.058;2022-10-13T03:48:21;10.10;99.90
14786;DHT22;7484;49.906;9.058;2022-10-13T03:50:48;10.10;99.90
14786;DHT22;7484;49.906;9.058;2022-10-13T03:53:15;10.10;99.90
14786;DHT22;7484;49.906;9.058;2022-10-13T03:55:41;10.10;99.90
14786;DHT22;7484;49.906;9.058;2022-10-13T03:58:15;10.00;99.90
14786;DHT22;7484;49.906;9.058;2022-10-13T04:00:44;10.00;99.90
14786;DHT22;7484;49.906;9.058;2022-10-13T04:03:12;10.00;99.90
14786;DHT22;7484;49.906;9.058;2022-10-13T04:05:39;10.00;99.90
14786;DHT22;7484;49.906;9.058;2022-10-13T04:08:06;10.20;99.90
14786;DHT22;7484;49.906;9.058;2022-10-13T04:10:33;10.00;99.90
14786;DHT22;7484;49.906;9.058;2022-10-13T04:13:00;10.00;99.90
14786;DHT22;7484;49.906;9.058;2022-10-13T04:15:28;10.00;99.90
14786;DHT22;7484;49.906;9.058;2022-10-13T04:17:55;10.10;99.90
14786;DHT22;7484;49.906;9.058;2022-10-13T04:20:22;10.10;99.90
14786;DHT22;7484;49.906;9.058;2022-10-13T04:22:48;10.20;99.90
14786;DHT22;7484;49.906;9.058;2022-10-13T04:25:16;10.20;99.90
14786;DHT22;7484;49.906;9.058;2022-10-13T04:27:43;10.20;99.90
14786;DHT22;7484;49.906;9.058;2022-10-13T04:30:12;10.00;99.90
14786;DHT22;7484;49.906;9.058;2022-10-13T04:32:41;9.90;99.90
14786;DHT22;7484;49.906;9.058;2022-10-13T04:35:10;9.80;99.90
14786;DHT22;7484;49.906;9.058;2022-10-13T04:37:36;9.70;99.90
14786;DHT22;7484;49.906;9.058;2022-10-13T04:40:05;9.70;99.90
14786;DHT22;7484;49.906;9.058;2022-10-13T04:42:34;9.70;99.90
14786;DHT22;7484;49.906;9.058;2022-10-13T04:45:00;9.90;99.90
14786;DHT22;7484;49.906;9.058;2022-10-13T04:47:28;10.00;99.90
14786;DHT22;7484;49.906;9.058;2022-10-13T04:49:56;10.10;99.90
14786;DHT22;7484;49.906;9.058;2022-10-13T04:52:22;10.10;99.90
14786;DHT22;7484;49.906;9.058;2022-10-13T04:54:52;10.00;99.90
14786;DHT22;7484;49.906;9.058;2022-10-13T04:57:18;10.10;99.90
14786;DHT22;7484;49.906;9.058;2022-10-13T04:59:45;10.10;99.90
14786;DHT22;7484;49.906;9.058;2022-10-13T05:02:12;10.10;99.90
14786;DHT22;7484;49.906;9.058;2022-10-13T05:04:39;10.10;99.90
14786;DHT22;7484;49.906;9.058;2022-10-13T05:07:07;10.00;99.90
14786;DHT22;7484;49.906;9.058;2022-10-13T05:09:33;9.90;99.90
14786;DHT22;7484;49.906;9.058;2022-10-13T05:12:01;10.00;99.90
14786;DHT22;7484;49.906;9.058;2022-10-13T05:14:28;10.00;99.90
14786;DHT22;7484;49.906;9.058;2022-10-13T05:16:56;10.10;99.90
14786;DHT22;7484;49.906;9.058;2022-10-13T05:19:22;10.10;99.90
14786;DHT22;7484;49.906;9.058;2022-10-13T05:21:50;10.00;99.90
14786;DHT22;7484;49.906;9.058;2022-10-13T05:24:18;9.90;99.90
14786;DHT22;7484;49.906;9.058;2022-10-13T05:26:55;9.90;99.90
14786;DHT22;7484;49.906;9.058;2022-10-13T05:29:22;10.00;99.90
14786;DHT22;7484;49.906;9.058;2022-10-13T05:31:48;10.00;99.90
14786;DHT22;7484;49.906;9.058;2022-10-13T05:34:15;10.00;99.90
14786;DHT22;7484;49.906;9.058;2022-10-13T05:36:41;9.90;99.90
14786;DHT22;7484;49.906;9.058;2022-10-13T05:39:09;9.90;99.90
14786;DHT22;7484;49.906;9.058;2022-10-13T05:41:37;9.90;99.90
14786;DHT22;7484;49.906;9.058;2022-10-13T05:44:12;9.90;99.90
14786;DHT22;7484;49.906;9.058;2022-10-13T05:46:49;9.80;99.90
14786;DHT22;7484;49.906;9.058;2022-10-13T05:49:15;9.90;99.90
14786;DHT22;7484;49.906;9.058;2022-10-13T05:51:44;9.90;99.90
14786;DHT22;7484;49.906;9.058;2022-10-13T05:54:16;10.00;99.90
14786;DHT22;7484;49.906;9.058;2022-10-13T05:56:50;10.00;99.90
14786;DHT22;7484;49.906;9.058;2022-10-13T05:59:18;9.90;99.90
14786;DHT22;7484;49.906;9.058;2022-10-13T06:01:47;9.90;99.90
14786;DHT22;7484;49.906;9.058;2022-10-13T06:04:17;9.90;99.90
14786;DHT22;7484;49.906;9.058;2022-10-13T06:06:46;9.80;99.90
14786;DHT22;7484;49.906;9.058;2022-10-13T06:09:13;9.90;99.90
14786;DHT22;7484;49.906;9.058;2022-10-13T06:11:40;10.00;99.90
14786;DHT22;7484;49.906;9.058;2022-10-13T06:14:08;10.00;99.90
14786;DHT22;7484;49.906;9.058;2022-10-13T06:16:35;10.00;99.90
14786;DHT22;7484;49.906;9.058;2022-10-13T06:19:02;10.10;99.90
14786;DHT22;7484;49.906;9.058;2022-10-13T06:21:29;10.10;99.90
14786;DHT22;7484;49.906;9.058;2022-10-13T06:23:55;10.10;99.90
14786;DHT22;7484;49.906;9.058;2022-10-13T06:26:22;10.10;99.90
14786;DHT22;7484;49.906;9.058;2022-10-13T06:28:49;10.20;99.90
14786;DHT22;7484;49.906;9.058;2022-10-13T06:31:17;10.20;99.90
14786;DHT22;7484;49.906;9.058;2022-10-13T06:33:44;10.20;99.90
14786;DHT22;7484;49.906;9.058;2022-10-13T06:36:11;10.10;99.90
14786;DHT22;7484;49.906;9.058;2022-10-13T06:38:37;10.20;99.90
14786;DHT22;7484;49.906;9.058;2022-10-13T06:41:05;10.20;99.90
14786;DHT22;7484;49.906;9.058;2022-10-13T06:43:34;10.10;99.90
14786;DHT22;7484;49.906;9.058;2022-10-13T06:46:02;10.20;99.90
14786;DHT22;7484;49.906;9.058;2022-10-13T06:48:30;10.20;99.90
14786;DHT22;7484;49.906;9.058;2022-10-13T06:51:00;10.30;99.90
14786;DHT22;7484;49.906;9.058;2022-10-13T06:53:26;10.30;99.90
14786;DHT22;7484;49.906;9.058;2022-10-13T06:55:55;10.30;99.90
14786;DHT22;7484;49.906;9.058;2022-10-13T06:58:22;10.30;99.90
14786;DHT22;7484;49.906;9.058;2022-10-13T07:00:48;10.30;99.90
14786;DHT22;7484;49.906;9.058;2022-10-13T07:03:15;10.30;99.90
14786;DHT22;7484;49.906;9.058;2022-10-13T07:05:43;10.30;99.90
14786;DHT22;7484;49.906;9.058;2022-10-13T07:08:10;10.40;99.90
14786;DHT22;7484;49.906;9.058;2022-10-13T07:10:37;10.40;99.90
14786;DHT22;7484;49.906;9.058;2022-10-13T07:13:04;10.40;99.90
14786;DHT22;7484;49.906;9.058;2022-10-13T07:15:33;10.40;99.90
14786;DHT22;7484;49.906;9.058;2022-10-13T07:18:02;10.40;99.90
14786;DHT22;7484;49.906;9.058;2022-10-13T07:20:29;10.60;99.90
14786;DHT22;7484;49.906;9.058;2022-10-13T07:22:57;10.60;99.90
14786;DHT22;7484;49.906;9.058;2022-10-13T07:25:24;10.60;99.90
14786;DHT22;7484;49.906;9.058;2022-10-13T07:27:51;10.50;99.90
14786;DHT22;7484;49.906;9.058;2022-10-13T07:30:17;10.50;99.90
14786;DHT22;7484;49.906;9.058;2022-10-13T07:32:46;10.50;99.90
14786;DHT22;7484;49.906;9.058;2022-10-13T07:35:13;10.50;99.90
14786;DHT22;7484;49.906;9.058;2022-10-13T07:37:40;10.50;99.90
14786;DHT22;7484;49.906;9.058;2022-10-13T07:40:09;10.60;99.90
14786;DHT22;7484;49.906;9.058;2022-10-13T07:42:36;10.70;99.90
14786;DHT22;7484;49.906;9.058;2022-10-13T07:45:03;10.80;99.90
14786;DHT22;7484;49.906;9.058;2022-10-13T07:47:30;11.00;99.90
14786;DHT22;7484;49.906;9.058;2022-10-13T07:49:57;11.10;99.90
14786;DHT22;7484;49.906;9.058;2022-10-13T07:52:24;11.20;99.90
14786;DHT22;7484;49.906;9.058;2022-10-13T07:54:50;11.30;99.90
14786;DHT22;7484;49.906;9.058;2022-10-13T07:57:19;11.40;99.90
14786;DHT22;7484;49.906;9.058;2022-10-13T07:59:45;11.40;99.90
14786;DHT22;7484;49.906;9.058;2022-10-13T08:02:14;11.40;99.90
14786;DHT22;7484;49.906;9.058;2022-10-13T08:04:41;11.50;99.90
14786;DHT22;7484;49.906;9.058;2022-10-13T08:07:08;11.60;99.90
14786;DHT22;7484;49.906;9.058;2022-10-13T08:09:35;11.60;99.90
14786;DHT22;7484;49.906;9.058;2022-10-13T08:12:02;11.60;99.90
14786;DHT22;7484;49.906;9.058;2022-10-13T08:14:30;11.60;99.90
14786;DHT22;7484;49.906;9.058;2022-10-13T08:16:57;11.80;99.90
14786;DHT22;7484;49.906;9.058;2022-10-13T08:19:24;11.90;99.90
14786;DHT22;7484;49.906;9.058;2022-10-13T08:21:52;12.00;99.90
14786;DHT22;7484;49.906;9.058;2022-10-13T08:24:19;12.00;99.90
14786;DHT22;7484;49.906;9.058;2022-10-13T08:26:47;12.20;99.90
14786;DHT22;7484;49.906;9.058;2022-10-13T08:29:15;12.30;99.90
14786;DHT22;7484;49.906;9.058;2022-10-13T08:31:43;12.40;99.90
14786;DHT22;7484;49.906;9.058;2022-10-13T08:34:10;12.60;99.90
14786;DHT22;7484;49.906;9.058;2022-10-13T08:36:38;12.70;99.90
14786;DHT22;7484;49.906;9.058;2022-10-13T08:39:05;12.80;99.90
14786;DHT22;7484;49.906;9.058;2022-10-13T08:41:36;12.80;99.90
14786;DHT22;7484;49.906;9.058;2022-10-13T08:44:05;12.70;99.90
14786;DHT22;7484;49.906;9.058;2022-10-13T08:46:38;12.80;99.90
14786;DHT22;7484;49.906;9.058;2022-10-13T08:49:08;12.90;99.90
14786;DHT22;7484;49.906;9.058;2022-10-13T08:51:35;12.90;99.90
14786;DHT22;7484;49.906;9.058;2022-10-13T08:54:03;13.00;99.90
14786;DHT22;7484;49.906;9.058;2022-10-13T08:56:33;13.00;99.90
14786;DHT22;7484;49.906;9.058;2022-10-13T08:59:02;13.00;99.90
14786;DHT22;7484;49.906;9.058;2022-10-13T09:01:30;13.20;99.90
14786;DHT22;7484;49.906;9.058;2022-10-13T09:04:12;13.30;99.90
14786;DHT22;7484;49.906;9.058;2022-10-13T09:06:46;13.50;99.90
14786;DHT22;7484;49.906;9.058;2022-10-13T09:09:15;13.80;99.90
14786;DHT22;7484;49.906;9.058;2022-10-13T09:11:44;13.90;99.90
14786;DHT22;7484;49.906;9.058;2022-10-13T09:14:19;14.10;99.90
14786;DHT22;7484;49.906;9.058;2022-10-13T09:16:46;14.10;99.90
14786;DHT22;7484;49.906;9.058;2022-10-13T09:19:21;14.10;99.90
14786;DHT22;7484;49.906;9.058;2022-10-13T09:21:48;14.10;99.90
14786;DHT22;7484;49.906;9.058;2022-10-13T09:24:17;14.00;99.90
14786;DHT22;7484;49.906;9.058;2022-10-13T09:26:46;14.00;99.90
14786;DHT22;7484;49.906;9.058;2022-10-13T09:29:18;13.90;99.90
14786;DHT22;7484;49.906;9.058;2022-10-13T09:31:46;13.90;99.90
14786;DHT22;7484;49.906;9.058;2022-10-13T09:34:22;13.90;99.90
14786;DHT22;7484;49.906;9.058;2022-10-13T09:36:56;13.90;99.90
14786;DHT22;7484;49.906;9.058;2022-10-13T09:39:22;14.00;99.90
14786;DHT22;7484;49.906;9.058;2022-10-13T09:41:49;14.10;99.90
14786;DHT22;7484;49.906;9.058;2022-10-13T09:44:18;14.10;99.90
14786;DHT22;7484;49.906;9.058;2022-10-13T09:46:55;14.30;99.90
14786;DHT22;7484;49.906;9.058;2022-10-13T09:49:31;14.50;99.90
14786;DHT22;7484;49.906;9.058;2022-10-13T09:52:05;14.60;99.90
14786;DHT22;7484;49.906;9.058;2022-10-13T09:54:40;14.60;99.90
14786;DHT22;7484;49.906;9.058;2022-10-13T09:57:14;14.50;99.90
14786;DHT22;7484;49.906;9.058;2022-10-13T09:59:45;14.40;99.90
14786;DHT22;7484;49.906;9.058;2022-10-13T10:02:19;14.40;99.90
14786;DHT22;7484;49.906;9.058;2022-10-13T10:04:51;14.30;99.90
14786;DHT22;7484;49.906;9.058;2022-10-13T10:07:21;14.10;99.90
14786;DHT22;7484;49.906;9.058;2022-10-13T10:09:53;14.10;99.90
14786;DHT22;7484;49.906;9.058;2022-10-13T10:12:25;14.00;99.90
14786;DHT22;7484;49.906;9.058;2022-10-13T10:14:53;13.90;99.90
14786;DHT22;7484;49.906;9.058;2022-10-13T10:17:27;13.80;99.90
14786;DHT22;7484;49.906;9.058;2022-10-13T10:20:05;13.70;99.90
14786;DHT22;7484;49.906;9.058;2022-10-13T10:22:45;13.70;99.90
14786;DHT22;7484;49.906;9.058;2022-10-13T10:25:21;13.70;99.90
14786;DHT22;7484;49.906;9.058;2022-10-13T10:28:15;13.70;99.90
14786;DHT22;7484;49.906;9.058;2022-10-13T10:30:47;13.80;99.90
14786;DHT22;7484;49.906;9.058;2022-10-13T10:33:19;13.90;99.90
14786;DHT22;7484;49.906;9.058;2022-10-13T10:35:50;13.90;99.90
14786;DHT22;7484;49.906;9.058;2022-10-13T10:38:29;13.90;99.90
14786;DHT22;7484;49.906;9.058;2022-10-13T10:41:04;13.90;99.90
14786;DHT22;7484;49.906;9.058;2022-10-13T10:43:51;13.90;99.90
14786;DHT22;7484;49.906;9.058;2022-10-13T10:46:22;13.90;99.90
14786;DHT22;7484;49.906;9.058;2022-10-13T10:48:52;13.90;99.90
14786;DHT22;7484;49.906;9.058;2022-10-13T10:51:28;13.90;99.90
14786;DHT22;7484;49.906;9.058;2022-10-13T10:54:03;13.90;99.90
14786;DHT22;7484;49.906;9.058;2022-10-13T10:56:34;13.90;99.90
14786;DHT22;7484;49.906;9.058;2022-10-13T10:59:19;13.90;99.90
14786;DHT22;7484;49.906;9.058;2022-10-13T11:01:52;13.90;99.90
14786;DHT22;7484;49.906;9.058;2022-10-13T11:04:43;13.90;99.90
14786;DHT22;7484;49.906;9.058;2022-10-13T11:07:13;13.90;99.90
14786;DHT22;7484;49.906;9.058;2022-10-13T11:10:02;13.90;99.90
14786;DHT22;7484;49.906;9.058;2022-10-13T11:12:46;13.90;99.90
14786;DHT22;7484;49.906;9.058;2022-10-13T11:15:17;13.90;99.90
14786;DHT22;7484;49.906;9.058;2022-10-13T11:17:47;13.90;99.90
14786;DHT22;7484;49.906;9.058;2022-10-13T11:20:53;14.00;99.90
14786;DHT22;7484;49.906;9.058;2022-10-13T11:23:30;14.10;99.90
14786;DHT22;7484;49.906;9.058;2022-10-13T11:26:19;14.00;99.90
14786;DHT22;7484;49.906;9.058;2022-10-13T11:28:48;14.10;99.90
14786;DHT22;7484;49.906;9.058;2022-10-13T11:34:25;14.20;99.90
14786;DHT22;7484;49.906;9.058;2022-10-13T11:36:55;14.10;99.90
14786;DHT22;7484;49.906;9.058;2022-10-13T11:42:38;14.10;99.90
14786;DHT22;7484;49.906;9.058;2022-10-13T11:45:19;14.00;99.90
14786;DHT22;7484;49.906;9.058;2022-10-13T11:48:21;14.10;99.90
14786;DHT22;7484;49.906;9.058;2022-10-13T11:51:03;14.20;99.90
14786;DHT22;7484;49.906;9.058;2022-10-13T11:53:41;14.20;99.90
14786;DHT22;7484;49.906;9.058;2022-10-13T11:56:19;14.20;99.90
14786;DHT22;7484;49.906;9.058;2022-10-13T11:58:47;14.20;99.90
14786;DHT22;7484;49.906;9.058;2022-10-13T12:01:15;14.20;99.90
14786;DHT22;7484;49.906;9.058;2022-10-13T12:03:45;14.20;99.90
14786;DHT22;7484;49.906;9.058;2022-10-13T12:06:24;14.20;99.90
14786;DHT22;7484;49.906;9.058;2022-10-13T12:09:00;14.30;99.90
14786;DHT22;7484;49.906;9.058;2022-10-13T12:11:31;14.40;99.90
14786;DHT22;7484;49.906;9.058;2022-10-13T12:14:00;14.40;99.90
14786;DHT22;7484;49.906;9.058;2022-10-13T12:16:28;14.50;99.90
14786;DHT22;7484;49.906;9.058;2022-10-13T12:19:14;14.60;99.90
14786;DHT22;7484;49.906;9.058;2022-10-13T12:21:48;14.60;99.90
14786;DHT22;7484;49.906;9.058;2022-10-13T12:24:15;14.50;99.90
14786;DHT22;7484;49.906;9.058;2022-10-13T12:26:42;14.60;99.90
14786;DHT22;7484;49.906;9.058;2022-10-13T12:29:12;14.60;99.90
14786;DHT22;7484;49.906;9.058;2022-10-13T12:31:41;14.60;99.90
14786;DHT22;7484;49.906;9.058;2022-10-13T12:34:18;14.60;99.90
14786;DHT22;7484;49.906;9.058;2022-10-13T12:36:50;14.60;99.90
14786;DHT22;7484;49.906;9.058;2022-10-13T12:39:18;14.60;99.90
14786;DHT22;7484;49.906;9.058;2022-10-13T12:41:46;14.70;99.90
14786;DHT22;7484;49.906;9.058;2022-10-13T12:44:17;14.80;99.90
14786;DHT22;7484;49.906;9.058;2022-10-13T12:46:47;14.90;99.90
14786;DHT22;7484;49.906;9.058;2022-10-13T12:49:15;15.00;99.90
14786;DHT22;7484;49.906;9.058;2022-10-13T12:51:44;15.10;99.90
14786;DHT22;7484;49.906;9.058;2022-10-13T12:54:21;15.20;99.90
14786;DHT22;7484;49.906;9.058;2022-10-13T12:56:50;15.20;99.90
14786;DHT22;7484;49.906;9.058;2022-10-13T12:59:19;15.20;99.90
14786;DHT22;7484;49.906;9.058;2022-10-13T13:01:52;15.30;99.90
14786;DHT22;7484;49.906;9.058;2022-10-13T13:07:29;15.40;99.90
14786;DHT22;7484;49.906;9.058;2022-10-13T13:10:01;15.50;99.90
14786;DHT22;7484;49.906;9.058;2022-10-13T13:12:28;15.60;99.90
14786;DHT22;7484;49.906;9.058;2022-10-13T13:15:17;15.60;99.90
14786;DHT22;7484;49.906;9.058;2022-10-13T13:17:44;15.50;99.90
14786;DHT22;7484;49.906;9.058;2022-10-13T13:20:20;15.50;99.90
14786;DHT22;7484;49.906;9.058;2022-10-13T13:22:47;15.40;99.90
14786;DHT22;7484;49.906;9.058;2022-10-13T13:25:15;15.30;99.90
14786;DHT22;7484;49.906;9.058;2022-10-13T13:27:42;15.30;99.90
14786;DHT22;7484;49.906;9.058;2022-10-13T13:30:13;15.40;99.90
14786;DHT22;7484;49.906;9.058;2022-10-13T13:32:40;15.30;99.90
14786;DHT22;7484;49.906;9.058;2022-10-13T13:35:08;15.40;99.90
14786;DHT22;7484;49.906;9.058;2022-10-13T13:37:38;15.40;99.90
14786;DHT22;7484;49.906;9.058;2022-10-13T13:40:12;15.40;99.90
14786;DHT22;7484;49.906;9.058;2022-10-13T13:42:39;15.40;99.90
14786;DHT22;7484;49.906;9.058;2022-10-13T13:45:10;15.40;99.90
14786;DHT22;7484;49.906;9.058;2022-10-13T13:47:39;15.40;99.90
14786;DHT22;7484;49.906;9.058;2022-10-13T13:50:12;15.50;99.90
14786;DHT22;7484;49.906;9.058;2022-10-13T13:52:45;15.50;99.90
14786;DHT22;7484;49.906;9.058;2022-10-13T13:55:12;15.40;99.90
14786;DHT22;7484;49.906;9.058;2022-10-13T13:57:40;15.40;99.90
14786;DHT22;7484;49.906;9.058;2022-10-13T14:00:12;15.30;99.90
14786;DHT22;7484;49.906;9.058;2022-10-13T14:02:41;15.40;99.90
14786;DHT22;7484;49.906;9.058;2022-10-13T14:05:09;15.50;99.90
14786;DHT22;7484;49.906;9.058;2022-10-13T14:07:37;15.50;99.90
14786;DHT22;7484;49.906;9.058;2022-10-13T14:10:04;15.50;99.90
14786;DHT22;7484;49.906;9.058;2022-10-13T14:12:31;15.70;99.90
14786;DHT22;7484;49.906;9.058;2022-10-13T14:14:58;15.70;99.90
14786;DHT22;7484;49.906;9.058;2022-10-13T14:17:25;15.80;99.90
14786;DHT22;7484;49.906;9.058;2022-10-13T14:19:54;15.80;99.90
14786;DHT22;7484;49.906;9.058;2022-10-13T14:22:21;15.80;99.90
14786;DHT22;7484;49.906;9.058;2022-10-13T14:24:48;15.80;99.90
14786;DHT22;7484;49.906;9.058;2022-10-13T14:27:15;15.90;99.90
14786;DHT22;7484;49.906;9.058;2022-10-13T14:29:41;15.90;99.90
14786;DHT22;7484;49.906;9.058;2022-10-13T14:32:08;15.90;99.90
14786;DHT22;7484;49.906;9.058;2022-10-13T14:34:35;15.90;99.90
14786;DHT22;7484;49.906;9.058;2022-10-13T14:37:03;15.90;99.90
14786;DHT22;7484;49.906;9.058;2022-10-13T14:39:30;15.80;99.90
14786;DHT22;7484;49.906;9.058;2022-10-13T14:41:57;15.70;99.90
14786;DHT22;7484;49.906;9.058;2022-10-13T14:44:24;15.70;99.90
14786;DHT22;7484;49.906;9.058;2022-10-13T14:46:51;15.60;99.90
14786;DHT22;7484;49.906;9.058;2022-10-13T14:49:17;15.60;99.90
14786;DHT22;7484;49.906;9.058;2022-10-13T14:51:46;15.50;99.90
14786;DHT22;7484;49.906;9.058;2022-10-13T14:54:18;15.40;99.90
14786;DHT22;7484;49.906;9.058;2022-10-13T14:56:45;15.40;99.90
14786;DHT22;7484;49.906;9.058;2022-10-13T14:59:12;15.50;99.90
14786;DHT22;7484;49.906;9.058;2022-10-13T15:01:39;15.50;99.90
14786;DHT22;7484;49.906;9.058;2022-10-13T15:04:07;15.60;99.90
14786;DHT22;7484;49.906;9.058;2022-10-13T15:06:34;15.50;99.90
14786;DHT22;7484;49.906;9.058;2022-10-13T15:09:02;15.40;99.90
14786;DHT22;7484;49.906;9.058;2022-10-13T15:11:30;15.60;99.90
14786;DHT22;7484;49.906;9.058;2022-10-13T15:13:57;15.60;99.90
14786;DHT22;7484;49.906;9.058;2022-10-13T15:16:25;15.60;99.90
14786;DHT22;7484;49.906;9.058;2022-10-13T15:18:52;15.70;99.90
14786;DHT22;7484;49.906;9.058;2022-10-13T15:21:19;15.70;99.90
14786;DHT22;7484;49.906;9.058;2022-10-13T15:23:46;15.80;99.90
14786;DHT22;7484;49.906;9.058;2022-10-13T15:26:15;15.80;99.90
14786;DHT22;7484;49.906;9.058;2022-10-13T15:28:44;15.80;99.90
14786;DHT22;7484;49.906;9.058;2022-10-13T15:31:13;15.80;99.90
14786;DHT22;7484;49.906;9.058;2022-10-13T15:33:41;15.80;99.90
14786;DHT22;7484;49.906;9.058;2022-10-13T15:36:10;15.70;99.90
14786;DHT22;7484;49.906;9.058;2022-10-13T15:38:38;15.60;99.90
14786;DHT22;7484;49.906;9.058;2022-10-13T15:41:05;15.70;99.90
14786;DHT22;7484;49.906;9.058;2022-10-13T15:43:33;15.60;99.90
14786;DHT22;7484;49.906;9.058;2022-10-13T15:46:03;15.60;99.90
14786;DHT22;7484;49.906;9.058;2022-10-13T15:48:31;15.50;99.90
14786;DHT22;7484;49.906;9.058;2022-10-13T15:50:58;15.50;99.90
14786;DHT22;7484;49.906;9.058;2022-10-13T15:53:25;15.40;99.90
14786;DHT22;7484;49.906;9.058;2022-10-13T15:55:52;15.40;99.90
14786;DHT22;7484;49.906;9.058;2022-10-13T15:58:19;15.40;99.90
14786;DHT22;7484;49.906;9.058;2022-10-13T16:00:45;15.40;99.90
14786;DHT22;7484;49.906;9.058;2022-10-13T16:03:15;15.30;99.90
14786;DHT22;7484;49.906;9.058;2022-10-13T16:05:43;15.30;99.90
14786;DHT22;7484;49.906;9.058;2022-10-13T16:08:10;15.20;99.90
14786;DHT22;7484;49.906;9.058;2022-10-13T16:10:37;15.30;99.90
14786;DHT22;7484;49.906;9.058;2022-10-13T16:13:05;15.20;99.90